createdAt,value
2022-12-11T00:00:42.306Z,71.33
2022-12-11T00:03:29.783Z,71.34
2022-12-11T00:05:57.417Z,71.32
2022-12-11T00:08:24.943Z,71.30
2022-12-11T00:10:52.512Z,71.27
2022-12-11T00:13:20.026Z,71.19
2022-12-11T00:15:47.507Z,71.18
2022-12-11T00:18:15.080Z,71.14
2022-12-11T00:20:42.946Z,71.15
2022-12-11T00:23:12.013Z,71.22
2022-12-11T00:25:47.253Z,71.19
2022-12-11T00:28:18.834Z,71.07
2022-12-11T00:30:47.182Z,71.14
2022-12-11T00:33:15.216Z,71.16
2022-12-11T00:35:45.727Z,71.22
2022-12-11T00:38:20.525Z,71.21
2022-12-11T00:40:49.109Z,71.47
2022-12-11T00:43:17.146Z,71.42
2022-12-11T00:45:47.068Z,71.42
2022-12-11T00:48:14.884Z,71.34
2022-12-11T00:50:42.763Z,71.28
2022-12-11T00:53:10.307Z,71.29
2022-12-11T00:55:40.644Z,71.20
2022-12-11T00:58:09.214Z,71.19
2022-12-11T01:00:37.638Z,71.06
2022-12-11T01:03:06.328Z,71.03
2022-12-11T01:05:34.050Z,70.97
2022-12-11T01:08:02.280Z,71.09
2022-12-11T01:10:29.965Z,70.89
2022-12-11T01:13:00.964Z,71.11
2022-12-11T01:15:31.425Z,71.03
2022-12-11T01:17:59.313Z,71.08
2022-12-11T01:20:28.019Z,71.24
2022-12-11T01:22:57.761Z,71.27
2022-12-11T01:25:26.808Z,71.26
2022-12-11T01:27:55.799Z,71.32
2022-12-11T01:30:25.606Z,71.33
2022-12-11T01:32:53.215Z,71.24
2022-12-11T01:35:21.012Z,71.17
2022-12-11T01:37:49.365Z,70.99
2022-12-11T01:40:18.987Z,70.92
2022-12-11T01:42:46.665Z,71.02
2022-12-11T01:45:32.261Z,71.08
2022-12-11T01:48:02.224Z,71.04
2022-12-11T01:50:32.368Z,70.90
2022-12-11T01:53:00.217Z,70.96
2022-12-11T01:55:28.159Z,71.03
2022-12-11T01:57:55.793Z,71.07
2022-12-11T02:00:23.386Z,71.02
2022-12-11T02:02:50.966Z,71.15
2022-12-11T02:05:18.548Z,71.14
2022-12-11T02:07:54.275Z,71.03
2022-12-11T02:10:28.223Z,71.00
2022-12-11T02:13:05.050Z,71.07
2022-12-11T02:16:05.700Z,71.11
2022-12-11T02:18:52.661Z,71.11
2022-12-11T02:21:28.389Z,71.12
2022-12-11T02:24:05.766Z,71.18
2022-12-11T02:26:52.016Z,71.22
2022-12-11T02:29:26.117Z,71.14
2022-12-11T02:32:02.456Z,71.00
2022-12-11T02:34:37.503Z,71.01
2022-12-11T02:37:10.606Z,71.09
2022-12-11T02:39:41.521Z,71.06
2022-12-11T02:42:11.323Z,71.04
2022-12-11T02:44:40.862Z,71.15
2022-12-11T02:47:12.800Z,71.22
2022-12-11T02:49:44.355Z,71.25
2022-12-11T02:52:14.670Z,71.20
2022-12-11T02:54:44.720Z,71.32
2022-12-11T02:57:17.060Z,71.21
2022-12-11T02:59:46.410Z,71.33
2022-12-11T03:02:17.057Z,71.24
2022-12-11T03:04:47.549Z,71.18
2022-12-11T03:07:23.287Z,71.15
2022-12-11T03:09:51.939Z,71.24
2022-12-11T03:12:25.949Z,71.26
2022-12-11T03:14:53.896Z,71.16
2022-12-11T03:17:25.378Z,71.02
2022-12-11T03:20:15.956Z,71.04
2022-12-11T03:23:05.303Z,71.05
2022-12-11T03:25:43.672Z,71.09
2022-12-11T03:28:19.419Z,71.05
2022-12-11T03:30:51.324Z,71.02
2022-12-11T03:33:35.629Z,71.11
2022-12-11T03:36:12.525Z,71.27
2022-12-11T03:39:01.773Z,71.22
2022-12-11T03:41:32.995Z,71.19
2022-12-11T03:44:01.323Z,71.10
2022-12-11T03:46:36.815Z,71.05
2022-12-11T03:49:13.078Z,71.24
2022-12-11T03:51:42.296Z,71.43
2022-12-11T03:54:11.464Z,71.39
2022-12-11T03:56:43.132Z,71.38
2022-12-11T03:59:10.877Z,71.42
2022-12-11T04:01:38.862Z,71.45
2022-12-11T04:04:06.422Z,71.50
2022-12-11T04:06:34.023Z,71.58
2022-12-11T04:09:01.548Z,71.54
2022-12-11T04:11:34.779Z,71.61
2022-12-11T04:14:29.942Z,71.71
2022-12-11T04:16:59.432Z,71.73
2022-12-11T04:19:43.472Z,71.67
2022-12-11T04:22:32.453Z,71.66
2022-12-11T04:25:05.306Z,71.46
2022-12-11T04:27:48.974Z,71.55
2022-12-11T04:30:23.057Z,71.69
2022-12-11T04:32:51.741Z,71.63
2022-12-11T04:35:20.328Z,71.49
2022-12-11T04:37:48.747Z,71.36
2022-12-11T04:40:18.629Z,71.32
2022-12-11T04:42:46.479Z,71.36
2022-12-11T04:45:14.463Z,71.40
2022-12-11T04:47:42.326Z,71.30
2022-12-11T04:50:14.303Z,71.24
2022-12-11T04:52:42.804Z,71.50
2022-12-11T04:55:11.716Z,71.40
2022-12-11T04:57:39.707Z,71.59
2022-12-11T05:00:10.361Z,71.49
2022-12-11T05:02:41.299Z,71.43
2022-12-11T05:05:11.182Z,71.36
2022-12-11T05:07:39.000Z,71.33
2022-12-11T05:10:07.545Z,71.47
2022-12-11T05:12:35.090Z,71.47
2022-12-11T05:15:02.710Z,71.58
2022-12-11T05:17:30.220Z,71.70
2022-12-11T05:19:57.685Z,71.59
2022-12-11T05:22:25.229Z,71.48
2022-12-11T05:24:52.727Z,71.36
2022-12-11T05:27:20.966Z,71.44
2022-12-11T05:29:48.486Z,71.38
2022-12-11T05:32:16.073Z,71.08
2022-12-11T05:34:43.839Z,71.29
2022-12-11T05:37:11.384Z,71.24
2022-12-11T05:39:39.253Z,71.31
2022-12-11T05:42:06.758Z,71.34
2022-12-11T05:44:34.602Z,71.42
2022-12-11T05:47:02.109Z,71.37
2022-12-11T05:49:31.125Z,71.42
2022-12-11T05:51:58.912Z,71.24
2022-12-11T05:54:26.385Z,71.40
2022-12-11T05:56:53.900Z,71.50
2022-12-11T05:59:21.572Z,71.61
2022-12-11T06:01:49.224Z,71.48
2022-12-11T06:04:16.869Z,71.38
2022-12-11T06:06:44.380Z,71.43
2022-12-11T06:09:15.484Z,71.55
2022-12-11T06:11:43.322Z,71.40
2022-12-11T06:14:11.661Z,71.57
2022-12-11T06:16:39.350Z,71.61
2022-12-11T06:19:07.127Z,71.59
2022-12-11T06:21:34.734Z,71.37
2022-12-11T06:24:03.813Z,71.38
2022-12-11T06:26:31.990Z,71.41
2022-12-11T06:28:59.658Z,71.33
2022-12-11T06:31:27.887Z,71.38
2022-12-11T06:33:55.765Z,71.43
2022-12-11T06:36:24.866Z,71.57
2022-12-11T06:38:55.301Z,71.57
2022-12-11T06:41:22.850Z,71.55
2022-12-11T06:43:50.826Z,71.59
2022-12-11T06:46:19.912Z,71.57
2022-12-11T06:48:50.545Z,71.59
2022-12-11T06:51:20.798Z,71.62
2022-12-11T06:53:53.363Z,71.70
2022-12-11T06:56:21.553Z,71.69
2022-12-11T06:58:49.748Z,71.56
2022-12-11T07:01:26.204Z,71.62
2022-12-11T07:03:58.767Z,71.42
2022-12-11T07:06:28.416Z,71.48
2022-12-11T07:08:56.825Z,71.56
2022-12-11T07:11:24.610Z,71.46
2022-12-11T07:13:52.165Z,71.49
2022-12-11T07:16:19.771Z,71.46
2022-12-11T07:18:50.043Z,71.50
2022-12-11T07:21:19.395Z,71.59
2022-12-11T07:23:47.853Z,71.58
2022-12-11T07:26:17.993Z,71.67
2022-12-11T07:28:45.934Z,71.63
2022-12-11T07:31:21.500Z,71.59
2022-12-11T07:33:57.077Z,71.61
2022-12-11T07:36:25.354Z,71.71
2022-12-11T07:38:53.811Z,71.65
2022-12-11T07:41:21.968Z,71.61
2022-12-11T07:43:49.598Z,71.78
2022-12-11T07:46:20.245Z,71.65
2022-12-11T07:48:48.841Z,71.59
2022-12-11T07:51:27.606Z,71.53
2022-12-11T07:54:01.356Z,71.49
2022-12-11T07:56:30.218Z,71.47
2022-12-11T07:59:02.236Z,71.41
2022-12-11T08:01:31.847Z,71.41
2022-12-11T08:03:59.459Z,71.55
2022-12-11T08:06:30.025Z,71.39
2022-12-11T08:08:59.850Z,71.41
2022-12-11T08:11:28.495Z,71.46
2022-12-11T08:13:56.385Z,71.29
2022-12-11T08:16:23.939Z,71.43
2022-12-11T08:18:51.875Z,71.57
2022-12-11T08:21:22.720Z,71.67
2022-12-11T08:23:51.776Z,71.50
2022-12-11T08:26:23.252Z,71.60
2022-12-11T08:28:51.027Z,71.69
2022-12-11T08:31:19.993Z,71.59
2022-12-11T08:33:48.558Z,71.62
2022-12-11T08:36:18.902Z,71.49
2022-12-11T08:38:47.128Z,71.44
2022-12-11T08:41:15.767Z,71.31
2022-12-11T08:43:44.618Z,71.44
2022-12-11T08:46:13.536Z,71.53
2022-12-11T08:48:42.739Z,71.37
2022-12-11T08:51:15.790Z,71.34
2022-12-11T08:53:44.276Z,71.37
2022-12-11T08:56:15.076Z,71.42
2022-12-11T08:58:43.772Z,71.38
2022-12-11T09:01:17.971Z,71.36
2022-12-11T09:03:45.541Z,71.37
2022-12-11T09:06:16.664Z,71.46
2022-12-11T09:08:51.674Z,71.47
2022-12-11T09:11:29.113Z,71.56
2022-12-11T09:13:58.934Z,71.63
2022-12-11T09:16:30.158Z,71.59
2022-12-11T09:18:59.091Z,71.60
2022-12-11T09:21:29.236Z,71.47
2022-12-11T09:23:59.894Z,71.46
2022-12-11T09:26:29.999Z,71.54
2022-12-11T09:28:58.435Z,71.46
2022-12-11T09:31:29.214Z,71.67
2022-12-11T09:33:59.496Z,71.63
2022-12-11T09:36:27.911Z,71.70
2022-12-11T09:38:56.124Z,71.65
2022-12-11T09:41:23.603Z,71.75
2022-12-11T09:44:14.390Z,71.60
2022-12-11T09:46:42.589Z,71.57
2022-12-11T09:49:42.525Z,71.45
2022-12-11T09:52:26.688Z,71.32
2022-12-11T09:55:14.922Z,71.29
2022-12-11T09:57:56.114Z,71.41
2022-12-11T10:00:32.139Z,71.37
2022-12-11T10:03:17.766Z,71.35
2022-12-11T10:05:57.337Z,71.50
2022-12-11T10:08:33.440Z,71.43
2022-12-11T10:11:40.256Z,71.48
2022-12-11T10:14:26.875Z,71.50
2022-12-11T10:17:02.079Z,71.55
2022-12-11T10:19:31.992Z,71.51
2022-12-11T10:22:01.438Z,71.38
2022-12-11T10:27:33.091Z,71.22
2022-12-11T10:30:34.501Z,71.31
2022-12-11T10:33:39.285Z,71.36
2022-12-11T10:36:09.132Z,71.36
2022-12-11T10:38:45.278Z,71.41
2022-12-11T10:41:17.358Z,71.53
2022-12-11T10:43:48.399Z,71.39
2022-12-11T10:46:19.281Z,71.41
2022-12-11T10:48:55.889Z,71.40
2022-12-11T10:51:40.464Z,71.40
2022-12-11T10:54:24.802Z,71.38
2022-12-11T10:56:53.956Z,71.36
2022-12-11T10:59:29.135Z,71.27
2022-12-11T11:01:58.040Z,71.06
2022-12-11T11:04:44.738Z,71.22
2022-12-11T11:07:18.087Z,71.26
2022-12-11T11:09:46.999Z,71.35
2022-12-11T11:12:27.570Z,71.35
2022-12-11T11:15:04.056Z,71.45
2022-12-11T11:17:35.468Z,71.42
2022-12-11T11:20:14.480Z,71.38
2022-12-11T11:22:47.428Z,71.21
2022-12-11T11:25:21.756Z,70.99
2022-12-11T11:28:19.469Z,70.99
2022-12-11T11:31:11.656Z,71.10
2022-12-11T11:33:50.969Z,71.13
2022-12-11T11:36:22.883Z,71.16
2022-12-11T11:39:07.373Z,71.21
2022-12-11T11:41:49.387Z,71.23
2022-12-11T11:44:25.371Z,71.41
2022-12-11T11:46:59.547Z,71.38
2022-12-11T11:49:59.035Z,71.34
2022-12-11T11:52:55.935Z,71.27
2022-12-11T11:55:37.760Z,71.26
2022-12-11T11:58:15.417Z,71.18
2022-12-11T12:00:43.584Z,71.11
2022-12-11T12:03:15.363Z,71.11
2022-12-11T12:05:57.580Z,71.38
2022-12-11T12:09:04.054Z,71.55
2022-12-11T12:11:47.639Z,71.47
2022-12-11T12:14:54.727Z,71.22
2022-12-11T12:17:39.037Z,71.34
2022-12-11T12:20:28.764Z,71.16
2022-12-11T12:23:02.645Z,71.19
2022-12-11T12:25:44.745Z,71.10
2022-12-11T12:28:45.134Z,71.17
2022-12-11T12:31:37.322Z,71.08
2022-12-11T12:34:05.167Z,71.20
2022-12-11T12:37:04.984Z,71.24
2022-12-11T12:39:35.681Z,71.27
2022-12-11T12:42:25.532Z,71.45
2022-12-11T12:45:16.491Z,71.45
2022-12-11T12:47:53.061Z,71.37
2022-12-11T12:50:26.696Z,71.40
2022-12-11T12:52:56.801Z,71.44
2022-12-11T12:55:29.017Z,71.37
2022-12-11T12:58:08.318Z,71.39
2022-12-11T13:00:42.295Z,71.47
2022-12-11T13:03:16.231Z,71.50
2022-12-11T13:05:55.415Z,71.59
2022-12-11T13:08:28.912Z,71.53
2022-12-11T13:11:07.185Z,71.44
2022-12-11T13:13:41.031Z,71.49
2022-12-11T13:16:25.179Z,71.42
2022-12-11T13:18:53.657Z,71.35
2022-12-11T13:21:40.085Z,71.36
2022-12-11T13:24:28.938Z,71.27
2022-12-11T13:26:56.920Z,71.31
2022-12-11T13:29:41.812Z,71.42
2022-12-11T13:32:09.494Z,71.42
2022-12-11T13:34:43.930Z,71.46
2022-12-11T13:37:32.959Z,71.61
2022-12-11T13:40:08.931Z,71.55
2022-12-11T13:42:47.700Z,71.37
2022-12-11T13:45:23.656Z,71.58
2022-12-11T13:47:51.459Z,71.63
2022-12-11T13:50:25.109Z,71.61
2022-12-11T13:52:58.177Z,71.48
2022-12-11T13:55:34.830Z,71.22
2022-12-11T13:58:02.660Z,71.33
2022-12-11T14:00:33.442Z,71.40
2022-12-11T14:03:07.475Z,71.37
2022-12-11T14:05:35.540Z,71.50
2022-12-11T14:08:10.315Z,71.52
2022-12-11T14:10:39.891Z,71.55
2022-12-11T14:13:20.567Z,71.48
2022-12-11T14:15:48.314Z,71.36
2022-12-11T14:18:24.774Z,71.40
2022-12-11T14:20:58.239Z,71.34
2022-12-11T14:23:29.835Z,71.34
2022-12-11T14:26:03.526Z,71.46
2022-12-11T14:28:38.181Z,71.65
2022-12-11T14:31:06.776Z,71.76
2022-12-11T14:33:43.733Z,71.76
2022-12-11T14:36:11.736Z,71.75
2022-12-11T14:38:55.636Z,71.75
2022-12-11T14:41:29.642Z,71.62
2022-12-11T14:44:00.536Z,71.58
2022-12-11T14:46:38.580Z,71.55
2022-12-11T14:49:17.729Z,71.57
2022-12-11T14:51:46.594Z,71.57
2022-12-11T14:54:43.255Z,71.49
2022-12-11T14:57:20.329Z,71.45
2022-12-11T14:59:50.698Z,71.58
2022-12-11T15:02:26.310Z,71.66
2022-12-11T15:05:03.202Z,71.69
2022-12-11T15:07:30.952Z,71.68
2022-12-11T15:09:58.479Z,71.67
2022-12-11T15:12:26.270Z,71.70
2022-12-11T15:14:57.211Z,71.62
2022-12-11T15:17:26.157Z,71.51
2022-12-11T15:20:07.397Z,71.65
2022-12-11T15:22:35.650Z,71.60
2022-12-11T15:25:04.119Z,71.63
2022-12-11T15:27:39.557Z,71.65
2022-12-11T15:30:26.885Z,71.59
2022-12-11T15:33:10.598Z,71.57
2022-12-11T15:35:40.536Z,71.57
2022-12-11T15:38:30.853Z,71.72
2022-12-11T15:40:58.477Z,71.61
2022-12-11T15:43:27.804Z,71.62
2022-12-11T15:45:55.498Z,71.62
2022-12-11T15:48:23.232Z,71.66
2022-12-11T15:50:50.834Z,71.62
2022-12-11T15:53:18.362Z,71.59
2022-12-11T15:55:46.471Z,71.41
2022-12-11T15:58:18.496Z,71.49
2022-12-11T16:00:46.808Z,71.57
2022-12-11T16:03:16.235Z,71.59
2022-12-11T16:05:44.838Z,71.55
2022-12-11T16:08:18.723Z,71.60
2022-12-11T16:10:47.443Z,71.59
2022-12-11T16:13:15.348Z,71.81
2022-12-11T16:15:44.946Z,71.83
2022-12-11T16:18:21.696Z,71.80
2022-12-11T16:20:51.182Z,71.90
2022-12-11T16:23:18.991Z,71.83
2022-12-11T16:25:47.236Z,71.81
2022-12-11T16:28:18.030Z,71.61
2022-12-11T16:30:45.689Z,71.54
2022-12-11T16:33:14.343Z,71.60
2022-12-11T16:35:42.842Z,71.61
2022-12-11T16:38:11.720Z,71.79
2022-12-11T16:40:39.321Z,71.90
2022-12-11T16:43:06.930Z,71.80
2022-12-11T16:45:34.546Z,71.83
2022-12-11T16:48:05.855Z,71.81
2022-12-11T16:50:33.351Z,71.74
2022-12-11T16:53:00.920Z,71.75
2022-12-11T16:55:28.422Z,71.73
2022-12-11T16:57:55.975Z,71.74
2022-12-11T17:00:23.852Z,71.87
2022-12-11T17:02:51.985Z,71.81
2022-12-11T17:05:19.972Z,71.72
2022-12-11T17:07:47.516Z,71.83
2022-12-11T17:10:15.087Z,71.75
2022-12-11T17:12:42.558Z,71.81
2022-12-11T17:15:10.655Z,71.82
2022-12-11T17:17:38.472Z,71.75
2022-12-11T17:20:06.803Z,71.77
2022-12-11T17:22:35.938Z,71.74
2022-12-11T17:25:03.900Z,71.83
2022-12-11T17:27:31.776Z,71.83
2022-12-11T17:29:59.370Z,71.67
2022-12-11T17:32:26.982Z,71.63
2022-12-11T17:34:54.738Z,71.60
2022-12-11T17:37:22.346Z,71.83
2022-12-11T17:39:50.077Z,71.82
2022-12-11T17:42:17.810Z,71.84
2022-12-11T17:44:45.539Z,71.78
2022-12-11T17:47:13.296Z,71.83
2022-12-11T17:49:41.410Z,71.77
2022-12-11T17:52:09.152Z,71.65
2022-12-11T17:54:39.268Z,71.74
2022-12-11T17:57:06.967Z,71.70
2022-12-11T17:59:34.640Z,71.67
2022-12-11T18:02:02.435Z,71.61
2022-12-11T18:04:30.069Z,71.52
2022-12-11T18:06:57.709Z,71.60
2022-12-11T18:09:25.327Z,71.60
2022-12-11T18:11:53.072Z,71.75
2022-12-11T18:14:20.702Z,71.69
2022-12-11T18:16:48.680Z,71.83
2022-12-11T18:19:16.648Z,71.71
2022-12-11T18:21:45.805Z,71.63
2022-12-11T18:24:13.337Z,71.81
2022-12-11T18:26:42.998Z,71.86
2022-12-11T18:29:10.989Z,71.85
2022-12-11T18:31:42.554Z,71.85
2022-12-11T18:34:11.311Z,71.77
2022-12-11T18:36:40.756Z,71.77
2022-12-11T18:39:08.743Z,71.82
2022-12-11T18:41:36.366Z,72.01
2022-12-11T18:44:09.541Z,71.87
2022-12-11T18:46:39.392Z,71.77
2022-12-11T18:49:07.540Z,71.72
2022-12-11T18:51:35.933Z,71.82
2022-12-11T18:54:03.997Z,71.66
2022-12-11T18:56:31.777Z,71.58
2022-12-11T18:58:59.376Z,71.47
2022-12-11T19:01:29.008Z,71.51
2022-12-11T19:04:04.227Z,71.49
2022-12-11T19:06:35.530Z,71.49
2022-12-11T19:09:05.136Z,71.47
2022-12-11T19:11:35.087Z,71.53
2022-12-11T19:14:05.272Z,71.46
2022-12-11T19:16:36.796Z,71.56
2022-12-11T19:19:09.881Z,71.52
2022-12-11T19:21:38.490Z,71.55
2022-12-11T19:24:08.901Z,71.54
2022-12-11T19:26:37.074Z,71.47
2022-12-11T19:29:05.203Z,71.50
2022-12-11T19:31:33.819Z,71.50
2022-12-11T19:34:02.867Z,71.47
2022-12-11T19:36:31.043Z,71.58
2022-12-11T19:39:01.884Z,71.46
2022-12-11T19:41:30.995Z,71.56
2022-12-11T19:43:59.557Z,71.54
2022-12-11T19:46:28.781Z,71.55
2022-12-11T19:48:58.053Z,71.47
2022-12-11T19:51:29.636Z,71.56
2022-12-11T19:53:57.315Z,71.56
2022-12-11T19:56:25.030Z,71.57
2022-12-11T19:58:52.688Z,71.52
2022-12-11T20:01:28.388Z,71.51
2022-12-11T20:03:59.599Z,71.45
2022-12-11T20:06:29.468Z,71.48
2022-12-11T20:08:57.607Z,71.45
2022-12-11T20:11:26.230Z,71.50
2022-12-11T20:13:55.578Z,71.53
2022-12-11T20:16:39.567Z,71.49
2022-12-11T20:19:11.067Z,71.59
2022-12-11T20:21:38.672Z,71.57
2022-12-11T20:24:06.483Z,71.56
2022-12-11T20:26:36.475Z,71.61
2022-12-11T20:29:07.355Z,71.65
2022-12-11T20:31:36.885Z,71.55
2022-12-11T20:34:05.009Z,71.66
2022-12-11T20:36:33.115Z,71.72
2022-12-11T20:39:00.874Z,71.74
2022-12-11T20:41:29.387Z,71.63
2022-12-11T20:43:57.082Z,71.58
2022-12-11T20:46:26.328Z,71.66
2022-12-11T20:48:55.886Z,71.69
2022-12-11T20:51:26.295Z,71.74
2022-12-11T20:53:58.734Z,71.69
2022-12-11T20:56:29.300Z,71.67
2022-12-11T20:58:58.443Z,71.87
2022-12-11T21:01:28.199Z,71.85
2022-12-11T21:03:56.393Z,71.74
2022-12-11T21:06:25.648Z,71.67
2022-12-11T21:08:53.333Z,71.76
2022-12-11T21:11:21.584Z,71.73
2022-12-11T21:13:49.490Z,71.81
2022-12-11T21:16:17.550Z,71.86
2022-12-11T21:18:46.529Z,71.84
2022-12-11T21:21:14.765Z,71.83
2022-12-11T21:23:42.362Z,72.02
2022-12-11T21:26:10.429Z,72.17
2022-12-11T21:28:38.076Z,72.11
2022-12-11T21:31:08.888Z,72.17
2022-12-11T21:33:36.543Z,72.10
2022-12-11T21:36:06.169Z,72.08
2022-12-11T21:38:33.761Z,72.05
2022-12-11T21:41:09.844Z,71.96
2022-12-11T21:43:42.757Z,72.13
2022-12-11T21:46:27.664Z,72.15
2022-12-11T21:48:55.394Z,72.14
2022-12-11T21:51:35.737Z,72.16
2022-12-11T21:54:06.878Z,72.22
2022-12-11T21:56:34.525Z,72.30
2022-12-11T21:59:02.227Z,72.24
2022-12-11T22:01:40.856Z,72.28
2022-12-11T22:04:10.567Z,72.25
2022-12-11T22:06:41.915Z,72.24
2022-12-11T22:09:12.325Z,72.29
2022-12-11T22:11:41.799Z,72.27
2022-12-11T22:14:13.280Z,72.39
2022-12-11T22:16:41.782Z,72.44
2022-12-11T22:19:09.628Z,72.58
2022-12-11T22:21:37.953Z,72.50
2022-12-11T22:24:05.630Z,72.48
2022-12-11T22:26:33.193Z,72.46
2022-12-11T22:29:00.717Z,72.52
2022-12-11T22:31:28.251Z,72.51
2022-12-11T22:33:56.338Z,72.48
2022-12-11T22:36:26.813Z,72.43
2022-12-11T22:38:55.305Z,72.48
2022-12-11T22:41:29.548Z,72.52
2022-12-11T22:43:58.381Z,72.38
2022-12-11T22:46:28.876Z,72.43
2022-12-11T22:48:58.116Z,72.51
2022-12-11T22:51:25.636Z,72.49
2022-12-11T22:53:53.115Z,72.59
2022-12-11T22:56:21.069Z,72.57
2022-12-11T22:58:48.609Z,72.46
2022-12-11T23:01:20.174Z,72.61
2022-12-11T23:03:47.830Z,72.57
2022-12-11T23:06:18.284Z,72.45
2022-12-11T23:08:46.148Z,72.55
2022-12-11T23:11:15.105Z,72.51
2022-12-11T23:13:43.140Z,72.48
2022-12-11T23:16:11.819Z,72.56
2022-12-11T23:18:40.295Z,72.67
2022-12-11T23:21:09.866Z,72.62
2022-12-11T23:23:37.468Z,72.62
2022-12-11T23:26:06.833Z,72.81
2022-12-11T23:28:34.370Z,72.86
2022-12-11T23:31:02.069Z,72.77
2022-12-11T23:33:29.631Z,72.63
2022-12-11T23:35:58.186Z,72.61
2022-12-11T23:38:25.902Z,72.60
2022-12-11T23:40:53.747Z,72.72
2022-12-11T23:43:22.174Z,72.85
2022-12-11T23:45:49.984Z,72.73
2022-12-11T23:48:18.469Z,72.74
2022-12-11T23:50:46.273Z,72.84
2022-12-11T23:53:13.822Z,72.95
2022-12-11T23:55:43.707Z,72.92
2022-12-11T23:58:11.937Z,72.87
